Nearby METAR Reports

 

LIBG - Grottaglie(Civ/A, Italy
Distance from station: NE 13km
Actualizado: 06/10/2022 17:50
Céu Limpo
Céu Limpo
 Vento de NNE
Vento: NNE 11 km/h
Temperatura: 21°C
Ponto de Orvalho: 9°C
Humidade: 46%
Barómetro: 1025 hPa
Resumo: Céu Limpo
Visibility: greater than 10 km
2022/10/06 15:50 LIBG 061550Z 02006KT CAVOK 21/09 Q1025
LIBH - Marina Di Ginosa, Italy
Distance from station: W 33km
Actualizado: 06/10/2022 17:55
Céu Limpo
Céu Limpo
 Vento de NNE
Vento: NNE 11 km/h
Temperatura: 23°C
Ponto de Orvalho: 9°C
Humidade: 41%
Barómetro: 1024 hPa
Resumo: Céu Limpo
Visibility: greater than 10 km
2022/10/06 15:55 LIBH 061555Z 03006KT CAVOK 23/09 Q1024 RMK BKN BKN200 QUK 1 QUL 1 NE VIS MAR 30 KM VIS MIN 9999
 
LIBV - Gioia Del Colle, Italy
Distance from station: NW 45km
Actualizado: 06/10/2022 17:55
Céu Limpo
Céu Limpo
 Vento de N
Vento: N 13 km/h
Temperatura: 18°C
Ponto de Orvalho: 4°C
Humidade: 40%
Barómetro: 1025 hPa
Resumo: Céu Limpo
Visibility: greater than 10 km
2022/10/06 15:55 LIBV 061555Z 35007KT CAVOK 18/04 Q1025
LIBR - Brindisi/Casale, Italy
Distance from station: ENE 62km
Actualizado: 06/10/2022 17:50
Céu Limpo
Céu Limpo
 Vento de NNW
Vento: NNW 17 km/h
Temperatura: 20°C
Ponto de Orvalho: 15°C
Humidade: 73%
Barómetro: 1025 hPa
Resumo: Céu Limpo
Visibility: greater than 10 km
2022/10/06 15:50 LIBR 061550Z 34009KT CAVOK 20/15 Q1025
 
LIBN - Lecce (it-Afb), Italy
Distance from station: ESE 79km
Actualizado: 06/10/2022 17:55
Céu Limpo
Céu Limpo
 Vento de N
Vento: N 17 km/h
Temperatura: 18°C
Ponto de Orvalho: 14°C
Humidade: 78%
Barómetro: 1025 hPa
Resumo: Céu Limpo
Visibility: greater than 10 km
2022/10/06 15:55 LIBN 061555Z 35009KT CAVOK 18/14 Q1025
LIBD - Bari/Palese Macc, Italy
Distance from station: NNW 85km
Actualizado: 06/10/2022 17:50
Céu Limpo
Céu Limpo
 Vento de WNW
Vento: WNW 6 km/h
Temperatura: 20°C
Ponto de Orvalho: 10°C
Humidade: 53%
Barómetro: 1026 hPa
Resumo: Céu Limpo
Visibility: greater than 10 km
2022/10/06 15:50 LIBD 061550Z 30003KT 270V330 CAVOK 20/10 Q1026